Date,TemperatureHighF,TemperatureAvgF,TemperatureLowF,DewpointHighF,DewpointAvgF,DewpointLowF,HumidityHigh,HumidityAvg,HumidityLow,PressureMaxIn,PressureMinIn,WindSpeedMaxMPH,WindSpeedAvgMPH,GustSpeedMaxMPH,PrecipitationSumIn
2012-12-1,64.8,44.8,30.4,44.3,36.4,28.3,96,75,43,30.36,30.26,2,0,4,0.00
2012-12-2,66.6,48.3,34.4,51.1,41.9,32.3,98,80,54,30.34,30.18,3,0,6,0.00
2012-12-3,75.4,60.4,50.5,56.5,52.7,47.6,98,78,48,30.23,30.14,1,0,2,0.00
2012-12-4,70.1,56.1,42.5,55.9,49.5,40.6,97,80,59,30.25,30.11,2,0,4,0.00
2012-12-5,63.4,57.5,43.3,57.3,53.0,40.8,91,85,76,30.15,30.05,3,0,8,0.01
2012-12-6,50.7,44.2,37.2,41.0,34.7,30.9,96,71,49,30.29,30.15,5,1,8,0.00
2012-12-7,52.5,48.1,44.9,49.0,43.1,35.6,95,83,69,30.17,29.95,1,0,3,0.12
2012-12-8,63.4,54.2,48.5,54.6,50.6,46.7,97,88,71,29.99,29.90,1,0,4,0.01
2012-12-9,71.3,60.3,48.2,61.2,55.7,46.6,98,86,63,30.07,29.92,1,0,4,0.02
2012-12-10,70.3,65.8,62.4,63.0,60.0,57.3,97,83,65,29.91,29.60,3,1,10,0.00
2012-12-11,65.0,57.2,47.9,58.6,43.8,34.2,87,62,45,30.09,29.64,5,1,10,0.00
2012-12-12,48.0,44.9,39.1,37.7,34.4,30.1,92,67,53,30.29,30.09,4,1,11,0.23
2012-12-13,51.3,40.8,30.3,37.0,33.9,27.4,93,78,56,30.35,30.25,4,1,11,0.28
2012-12-14,56.7,37.3,24.7,36.3,28.9,23.0,96,76,35,30.33,30.18,2,0,5,0.01
2012-12-15,56.9,42.0,29.8,40.9,33.3,27.2,97,75,34,30.23,30.05,2,0,5,0.00
2012-12-16,58.0,52.3,46.7,54.9,49.5,39.7,97,90,72,30.03,29.84,1,0,5,0.11
2012-12-17,61.0,57.5,54.2,56.1,54.7,53.1,97,90,82,29.84,29.57,6,0,12,0.22
2012-12-18,61.8,53.9,37.5,55.3,44.4,32.3,98,73,43,29.85,29.58,7,1,15,0.00
2012-12-19,64.7,45.0,30.6,39.5,33.9,28.8,96,70,31,30.07,29.83,5,0,8,0.01
2012-12-20,62.3,47.6,33.7,60.8,42.8,31.9,97,84,62,30.13,29.39,5,1,16,0.30
2012-12-21,58.4,43.8,37.6,52.9,28.0,20.4,82,54,40,29.75,29.41,6,3,18,0.00
2012-12-22,50.8,39.7,28.8,26.3,21.4,16.2,79,50,26,30.05,29.75,10,2,18,0.00
2012-12-23,55.0,38.8,23.2,30.4,22.9,16.3,92,59,25,30.10,29.96,2,0,7,0.00
2012-12-24,52.5,47.9,42.8,46.2,37.5,29.3,87,68,52,29.98,29.84,3,0,8,0.01
2012-12-25,59.9,51.5,43.6,46.5,43.4,41.0,94,75,51,30.06,29.86,6,1,10,0.02
2012-12-26,47.7,43.3,37.9,46.9,41.2,35.8,97,92,82,30.03,29.38,7,2,14,1.61
2012-12-27,49.1,40.5,33.8,36.0,30.5,25.0,93,69,47,30.03,29.57,6,1,12,0.00
2012-12-28,45.2,36.1,26.1,33.2,27.5,23.3,94,72,51,30.15,29.96,1,0,2,0.00
2012-12-29,51.7,42.8,37.6,42.7,35.0,25.4,96,76,52,29.96,29.59,7,1,18,0.38
2012-12-30,45.7,37.3,26.9,25.9,21.8,17.5,83,55,32,30.35,29.89,7,2,17,0.00
2012-12-31,53.5,38.5,23.0,29.3,24.3,19.7,95,62,27,30.33,30.04,4,0,6,0.00